sensor_id;sensor_type;location;lat;lon;timestamp;pressure;altitude;pressure_sealevel;temperature;humidity
62111;BME280;48102;47.526;19.072;2023-02-21T04:40:51;100282.66;;;8.11;98.10
62111;BME280;48102;47.526;19.072;2023-02-21T04:43:55;100282.66;;;8.11;98.10
62111;BME280;48102;47.526;19.072;2023-02-21T04:46:58;100282.06;;;7.37;100.00
62111;BME280;48102;47.526;19.072;2023-02-21T04:50:01;100294.00;;;7.22;100.00
62111;BME280;48102;47.526;19.072;2023-02-21T04:53:04;100299.00;;;7.28;100.00
62111;BME280;48102;47.526;19.072;2023-02-21T04:56:06;100294.50;;;7.32;100.00
62111;BME280;48102;47.526;19.072;2023-02-21T04:59:10;100296.62;;;7.22;100.00
62111;BME280;48102;47.526;19.072;2023-02-21T05:02:13;100286.47;;;7.37;100.00
62111;BME280;48102;47.526;19.072;2023-02-21T05:05:17;100288.81;;;7.44;100.00
62111;BME280;48102;47.526;19.072;2023-02-21T05:08:20;100291.91;;;7.54;100.00
62111;BME280;48102;47.526;19.072;2023-02-21T05:11:32;100288.37;;;8.00;100.00
62111;BME280;48102;47.526;19.072;2023-02-21T05:14:37;100282.53;;;8.97;96.17
62111;BME280;48102;47.526;19.072;2023-02-21T05:17:40;100284.72;;;8.88;93.05
62111;BME280;48102;47.526;19.072;2023-02-21T05:20:43;100293.88;;;9.18;100.00
62111;BME280;48102;47.526;19.072;2023-02-21T05:23:48;100281.66;;;9.17;95.54
62111;BME280;48102;47.526;19.072;2023-02-21T05:26:58;100295.28;;;9.07;94.51
62111;BME280;48102;47.526;19.072;2023-02-21T05:30:01;100288.59;;;8.59;94.96
62111;BME280;48102;47.526;19.072;2023-02-21T05:33:04;100289.50;;;8.37;95.39
62111;BME280;48102;47.526;19.072;2023-02-21T05:36:07;100293.09;;;8.35;95.82
62111;BME280;48102;47.526;19.072;2023-02-21T05:39:10;100297.53;;;8.12;97.27
62111;BME280;48102;47.526;19.072;2023-02-21T05:42:13;100290.91;;;8.02;98.63
62111;BME280;48102;47.526;19.072;2023-02-21T05:45:16;100288.06;;;7.86;100.00
62111;BME280;48102;47.526;19.072;2023-02-21T05:48:22;100285.84;;;7.75;100.00
62111;BME280;48102;47.526;19.072;2023-02-21T05:51:25;100283.66;;;7.87;100.00
62111;BME280;48102;47.526;19.072;2023-02-21T05:54:28;100285.91;;;7.74;100.00
62111;BME280;48102;47.526;19.072;2023-02-21T05:57:37;100295.31;;;8.01;98.96
62111;BME280;48102;47.526;19.072;2023-02-21T06:00:40;100296.12;;;8.03;99.20
62111;BME280;48102;47.526;19.072;2023-02-21T06:03:43;100294.66;;;7.96;99.72
62111;BME280;48102;47.526;19.072;2023-02-21T06:06:46;100292.28;;;7.90;100.00
62111;BME280;48102;47.526;19.072;2023-02-21T06:09:49;100295.69;;;8.14;98.35
62111;BME280;48102;47.526;19.072;2023-02-21T06:12:51;100302.97;;;8.28;96.84
62111;BME280;48102;47.526;19.072;2023-02-21T06:15:54;100307.50;;;8.24;98.76
62111;BME280;48102;47.526;19.072;2023-02-21T06:18:57;100301.41;;;8.24;99.04
62111;BME280;48102;47.526;19.072;2023-02-21T06:22:00;100310.81;;;8.29;98.74
62111;BME280;48102;47.526;19.072;2023-02-21T06:25:03;100301.81;;;8.35;98.02
62111;BME280;48102;47.526;19.072;2023-02-21T06:28:06;100304.69;;;8.71;95.26
62111;BME280;48102;47.526;19.072;2023-02-21T06:31:10;100313.31;;;8.95;94.02
62111;BME280;48102;47.526;19.072;2023-02-21T06:34:13;100308.94;;;9.15;91.94
62111;BME280;48102;47.526;19.072;2023-02-21T06:37:17;100310.06;;;9.29;91.23
62111;BME280;48102;47.526;19.072;2023-02-21T06:40:20;100316.72;;;9.37;91.94
62111;BME280;48102;47.526;19.072;2023-02-21T06:43:23;100318.87;;;9.66;88.06
62111;BME280;48102;47.526;19.072;2023-02-21T06:46:28;100321.44;;;9.87;87.11
62111;BME280;48102;47.526;19.072;2023-02-21T06:49:31;100316.31;;;10.02;85.51
62111;BME280;48102;47.526;19.072;2023-02-21T06:52:34;100326.94;;;10.18;84.91
62111;BME280;48102;47.526;19.072;2023-02-21T06:55:37;100332.22;;;10.37;83.14
62111;BME280;48102;47.526;19.072;2023-02-21T06:58:41;100323.53;;;10.52;83.48
62111;BME280;48102;47.526;19.072;2023-02-21T07:01:43;100334.41;;;10.64;81.78
62111;BME280;48102;47.526;19.072;2023-02-21T07:04:46;100334.50;;;10.79;79.71
62111;BME280;48102;47.526;19.072;2023-02-21T07:07:50;100336.19;;;10.98;79.27
62111;BME280;48102;47.526;19.072;2023-02-21T07:10:55;100334.91;;;11.05;79.42
62111;BME280;48102;47.526;19.072;2023-02-21T07:13:58;100336.84;;;11.19;77.91
62111;BME280;48102;47.526;19.072;2023-02-21T07:17:01;100334.72;;;11.25;79.49
62111;BME280;48102;47.526;19.072;2023-02-21T07:20:04;100350.91;;;11.35;79.07
62111;BME280;48102;47.526;19.072;2023-02-21T07:23:10;100350.50;;;11.43;77.65
62111;BME280;48102;47.526;19.072;2023-02-21T07:26:13;100350.28;;;11.47;76.25
62111;BME280;48102;47.526;19.072;2023-02-21T07:29:16;100356.16;;;11.52;75.32
62111;BME280;48102;47.526;19.072;2023-02-21T07:32:19;100356.69;;;11.59;77.52
62111;BME280;48102;47.526;19.072;2023-02-21T07:35:24;100351.75;;;11.69;76.05
62111;BME280;48102;47.526;19.072;2023-02-21T07:38:28;100358.47;;;11.92;74.30
62111;BME280;48102;47.526;19.072;2023-02-21T07:41:32;100362.41;;;12.00;72.66
62111;BME280;48102;47.526;19.072;2023-02-21T07:44:35;100356.50;;;12.11;71.99
62111;BME280;48102;47.526;19.072;2023-02-21T07:47:38;100354.03;;;12.24;70.00
62111;BME280;48102;47.526;19.072;2023-02-21T07:50:41;100354.59;;;12.29;69.86
62111;BME280;48102;47.526;19.072;2023-02-21T07:53:44;100360.06;;;12.42;67.73
62111;BME280;48102;47.526;19.072;2023-02-21T07:56:48;100343.88;;;12.78;66.18
62111;BME280;48102;47.526;19.072;2023-02-21T07:59:51;100339.72;;;13.33;62.36
62111;BME280;48102;47.526;19.072;2023-02-21T08:02:54;100342.16;;;13.50;60.74
62111;BME280;48102;47.526;19.072;2023-02-21T08:05:58;100352.59;;;13.39;60.71
62111;BME280;48102;47.526;19.072;2023-02-21T08:09:02;100344.63;;;13.24;61.57
62111;BME280;48102;47.526;19.072;2023-02-21T08:12:07;100331.81;;;13.02;62.21
62111;BME280;48102;47.526;19.072;2023-02-21T08:15:10;100337.38;;;12.98;64.10
62111;BME280;48102;47.526;19.072;2023-02-21T08:18:18;100351.81;;;12.92;63.35
62111;BME280;48102;47.526;19.072;2023-02-21T08:21:22;100345.44;;;13.11;63.32
62111;BME280;48102;47.526;19.072;2023-02-21T08:24:25;100341.84;;;13.12;63.77
62111;BME280;48102;47.526;19.072;2023-02-21T08:27:28;100341.75;;;13.13;61.65
62111;BME280;48102;47.526;19.072;2023-02-21T08:30:31;100358.81;;;13.23;62.20
62111;BME280;48102;47.526;19.072;2023-02-21T08:33:33;100345.72;;;13.20;62.34
62111;BME280;48102;47.526;19.072;2023-02-21T08:36:39;100348.78;;;13.28;61.17
62111;BME280;48102;47.526;19.072;2023-02-21T08:39:47;100342.63;;;13.28;62.85
62111;BME280;48102;47.526;19.072;2023-02-21T08:42:53;100333.50;;;13.48;62.85
62111;BME280;48102;47.526;19.072;2023-02-21T08:45:56;100351.69;;;14.64;57.23
62111;BME280;48102;47.526;19.072;2023-02-21T08:49:01;100341.78;;;15.31;53.74
62111;BME280;48102;47.526;19.072;2023-02-21T08:52:04;100348.63;;;14.70;55.58
62111;BME280;48102;47.526;19.072;2023-02-21T08:55:07;100347.25;;;13.96;59.07
62111;BME280;48102;47.526;19.072;2023-02-21T08:58:11;100352.66;;;13.80;60.67
62111;BME280;48102;47.526;19.072;2023-02-21T09:01:15;100345.09;;;13.74;61.70
62111;BME280;48102;47.526;19.072;2023-02-21T09:04:19;100331.84;;;13.60;62.84
62111;BME280;48102;47.526;19.072;2023-02-21T09:07:21;100335.63;;;14.11;60.06
62111;BME280;48102;47.526;19.072;2023-02-21T09:10:27;100344.06;;;14.18;59.65
62111;BME280;48102;47.526;19.072;2023-02-21T09:13:30;100330.84;;;14.03;59.66
62111;BME280;48102;47.526;19.072;2023-02-21T09:16:36;100339.88;;;13.87;61.33
62111;BME280;48102;47.526;19.072;2023-02-21T09:19:39;100345.91;;;13.89;61.06
62111;BME280;48102;47.526;19.072;2023-02-21T09:22:43;100329.47;;;13.84;61.33
62111;BME280;48102;47.526;19.072;2023-02-21T09:25:47;100340.84;;;13.57;61.54
62111;BME280;48102;47.526;19.072;2023-02-21T09:28:53;100331.59;;;13.50;62.46
62111;BME280;48102;47.526;19.072;2023-02-21T09:31:56;100337.59;;;13.95;63.26
62111;BME280;48102;47.526;19.072;2023-02-21T09:35:00;100341.03;;;14.37;60.16
62111;BME280;48102;47.526;19.072;2023-02-21T09:38:03;100347.38;;;14.48;60.06
62111;BME280;48102;47.526;19.072;2023-02-21T09:41:11;100346.59;;;14.19;60.73
62111;BME280;48102;47.526;19.072;2023-02-21T09:44:20;100350.03;;;14.07;61.35
62111;BME280;48102;47.526;19.072;2023-02-21T09:47:32;100351.47;;;13.98;62.68
62111;BME280;48102;47.526;19.072;2023-02-21T09:50:41;100351.59;;;13.97;62.60
62111;BME280;48102;47.526;19.072;2023-02-21T09:53:46;100350.81;;;14.09;62.90
62111;BME280;48102;47.526;19.072;2023-02-21T09:56:50;100346.41;;;14.22;63.11
62111;BME280;48102;47.526;19.072;2023-02-21T09:59:52;100344.78;;;14.34;62.20
62111;BME280;48102;47.526;19.072;2023-02-21T10:06:36;100358.75;;;14.36;66.18
62111;BME280;48102;47.526;19.072;2023-02-21T10:09:45;100359.56;;;14.78;62.20
62111;BME280;48102;47.526;19.072;2023-02-21T10:13:03;100355.28;;;14.63;62.14
62111;BME280;48102;47.526;19.072;2023-02-21T10:16:27;100360.38;;;14.66;62.14
62111;BME280;48102;47.526;19.072;2023-02-21T10:19:37;100358.75;;;14.63;62.25
62111;BME280;48102;47.526;19.072;2023-02-21T10:22:44;100360.50;;;14.64;63.07
62111;BME280;48102;47.526;19.072;2023-02-21T10:25:52;100361.88;;;14.70;62.21
62111;BME280;48102;47.526;19.072;2023-02-21T10:28:57;100350.03;;;15.01;63.18
62111;BME280;48102;47.526;19.072;2023-02-21T10:32:01;100353.78;;;14.98;60.24
62111;BME280;48102;47.526;19.072;2023-02-21T10:35:06;100352.37;;;14.93;61.68
62111;BME280;48102;47.526;19.072;2023-02-21T10:38:15;100347.50;;;14.87;62.70
62111;BME280;48102;47.526;19.072;2023-02-21T10:41:21;100344.50;;;14.78;62.87
62111;BME280;48102;47.526;19.072;2023-02-21T10:44:28;100346.97;;;14.94;61.61
62111;BME280;48102;47.526;19.072;2023-02-21T10:54:20;100347.38;;;15.01;63.66
62111;BME280;48102;47.526;19.072;2023-02-21T10:57:23;100343.03;;;14.87;63.44
62111;BME280;48102;47.526;19.072;2023-02-21T11:00:38;100349.37;;;14.85;63.47
62111;BME280;48102;47.526;19.072;2023-02-21T11:03:49;100350.13;;;14.87;63.82
62111;BME280;48102;47.526;19.072;2023-02-21T11:07:03;100359.91;;;14.59;64.41
62111;BME280;48102;47.526;19.072;2023-02-21T11:10:29;100349.84;;;14.37;66.88
62111;BME280;48102;47.526;19.072;2023-02-21T11:13:33;100341.81;;;14.39;65.43
62111;BME280;48102;47.526;19.072;2023-02-21T11:16:37;100333.84;;;14.66;66.23
62111;BME280;48102;47.526;19.072;2023-02-21T11:19:46;100333.22;;;14.75;66.25
62111;BME280;48102;47.526;19.072;2023-02-21T11:22:50;100328.78;;;14.75;64.00
62111;BME280;48102;47.526;19.072;2023-02-21T11:26:04;100321.03;;;14.72;64.16
62111;BME280;48102;47.526;19.072;2023-02-21T11:29:10;100334.22;;;14.87;64.00
62111;BME280;48102;47.526;19.072;2023-02-21T11:32:33;100325.72;;;14.82;65.06
62111;BME280;48102;47.526;19.072;2023-02-21T11:35:50;100321.16;;;14.96;63.05
62111;BME280;48102;47.526;19.072;2023-02-21T11:39:00;100319.69;;;15.18;65.48
62111;BME280;48102;47.526;19.072;2023-02-21T11:42:23;100325.84;;;15.18;63.62
62111;BME280;48102;47.526;19.072;2023-02-21T11:45:28;100322.47;;;15.16;63.94
62111;BME280;48102;47.526;19.072;2023-02-21T11:48:41;100316.41;;;15.14;65.88
62111;BME280;48102;47.526;19.072;2023-02-21T11:51:50;100329.59;;;15.28;66.04
62111;BME280;48102;47.526;19.072;2023-02-21T11:54:55;100311.94;;;15.40;63.32
62111;BME280;48102;47.526;19.072;2023-02-21T11:58:25;100316.81;;;15.46;63.37
62111;BME280;48102;47.526;19.072;2023-02-21T12:05:29;100307.16;;;15.32;64.35
62111;BME280;48102;47.526;19.072;2023-02-21T12:08:50;100313.19;;;15.47;65.28
62111;BME280;48102;47.526;19.072;2023-02-21T12:18:41;100318.03;;;15.79;66.60
62111;BME280;48102;47.526;19.072;2023-02-21T12:28:24;100318.69;;;16.19;66.11
62111;BME280;48102;47.526;19.072;2023-02-21T12:51:45;100291.87;;;15.23;63.78
62111;BME280;48102;47.526;19.072;2023-02-21T12:55:03;100277.00;;;15.34;66.00
62111;BME280;48102;47.526;19.072;2023-02-21T13:01:35;100280.91;;;15.41;67.68
62111;BME280;48102;47.526;19.072;2023-02-21T13:08:12;100293.03;;;15.32;65.20
62111;BME280;48102;47.526;19.072;2023-02-21T13:11:59;100292.34;;;15.67;65.53
62111;BME280;48102;47.526;19.072;2023-02-21T13:15:23;100294.56;;;15.86;62.35
62111;BME280;48102;47.526;19.072;2023-02-21T13:18:34;100302.03;;;16.28;62.34
62111;BME280;48102;47.526;19.072;2023-02-21T13:28:44;100307.78;;;17.50;52.91
62111;BME280;48102;47.526;19.072;2023-02-21T13:31:58;100307.75;;;17.73;51.65
62111;BME280;48102;47.526;19.072;2023-02-21T13:35:05;100297.84;;;18.62;51.24
62111;BME280;48102;47.526;19.072;2023-02-21T13:38:10;100285.56;;;19.52;47.83
62111;BME280;48102;47.526;19.072;2023-02-21T13:41:13;100298.34;;;19.49;46.08
62111;BME280;48102;47.526;19.072;2023-02-21T13:44:25;100286.25;;;19.85;47.04
62111;BME280;48102;47.526;19.072;2023-02-21T13:50:59;100288.88;;;25.19;36.10
62111;BME280;48102;47.526;19.072;2023-02-21T13:54:07;100282.56;;;28.01;30.64
62111;BME280;48102;47.526;19.072;2023-02-21T13:57:31;100284.91;;;29.94;28.08
62111;BME280;48102;47.526;19.072;2023-02-21T14:03:38;100283.53;;;32.02;24.85
62111;BME280;48102;47.526;19.072;2023-02-21T14:06:54;100273.44;;;31.58;25.12
62111;BME280;48102;47.526;19.072;2023-02-21T14:09:58;100273.69;;;31.43;25.76
62111;BME280;48102;47.526;19.072;2023-02-21T14:13:05;100279.44;;;31.73;25.34
62111;BME280;48102;47.526;19.072;2023-02-21T14:19:21;100287.56;;;34.47;23.11
62111;BME280;48102;47.526;19.072;2023-02-21T14:22:30;100291.91;;;34.66;22.14
62111;BME280;48102;47.526;19.072;2023-02-21T14:25:33;100289.94;;;33.64;22.82
62111;BME280;48102;47.526;19.072;2023-02-21T14:38:22;100259.56;;;28.76;28.21
62111;BME280;48102;47.526;19.072;2023-02-21T14:41:43;100269.06;;;29.21;27.14
62111;BME280;48102;47.526;19.072;2023-02-21T14:48:35;100275.72;;;27.24;29.95
62111;BME280;48102;47.526;19.072;2023-02-21T14:51:54;100279.81;;;24.39;34.53
62111;BME280;48102;47.526;19.072;2023-02-21T14:55:38;100277.81;;;22.70;36.94
62111;BME280;48102;47.526;19.072;2023-02-21T14:58:58;100271.19;;;21.93;38.32
62111;BME280;48102;47.526;19.072;2023-02-21T15:05:44;100272.34;;;20.88;40.96
62111;BME280;48102;47.526;19.072;2023-02-21T15:08:54;100268.84;;;20.20;42.19
62111;BME280;48102;47.526;19.072;2023-02-21T15:11:57;100262.50;;;19.21;43.94
62111;BME280;48102;47.526;19.072;2023-02-21T15:15:01;100263.75;;;18.33;46.64
62111;BME280;48102;47.526;19.072;2023-02-21T15:18:22;100262.97;;;17.11;50.48
62111;BME280;48102;47.526;19.072;2023-02-21T15:21:27;100263.41;;;16.47;52.81
62111;BME280;48102;47.526;19.072;2023-02-21T15:24:30;100260.41;;;15.43;57.86
62111;BME280;48102;47.526;19.072;2023-02-21T15:31:05;100262.44;;;14.50;64.58
62111;BME280;48102;47.526;19.072;2023-02-21T15:34:19;100261.22;;;14.41;64.37
62111;BME280;48102;47.526;19.072;2023-02-21T15:37:25;100254.41;;;14.37;65.57
62111;BME280;48102;47.526;19.072;2023-02-21T15:40:30;100259.84;;;14.09;67.87
62111;BME280;48102;47.526;19.072;2023-02-21T15:43:41;100274.69;;;13.84;69.69
62111;BME280;48102;47.526;19.072;2023-02-21T15:50:23;100258.63;;;13.32;74.31
62111;BME280;48102;47.526;19.072;2023-02-21T15:53:28;100270.78;;;13.20;75.24
62111;BME280;48102;47.526;19.072;2023-02-21T15:56:31;100280.06;;;13.13;74.53
62111;BME280;48102;47.526;19.072;2023-02-21T15:59:34;100290.19;;;12.76;78.21
62111;BME280;48102;47.526;19.072;2023-02-21T16:02:36;100297.78;;;12.52;80.69
62111;BME280;48102;47.526;19.072;2023-02-21T16:05:39;100296.72;;;12.40;82.29
62111;BME280;48102;47.526;19.072;2023-02-21T16:12:24;100302.75;;;12.42;82.68
62111;BME280;48102;47.526;19.072;2023-02-21T16:15:34;100299.66;;;12.20;84.06
62111;BME280;48102;47.526;19.072;2023-02-21T16:18:39;100303.66;;;11.95;87.48
62111;BME280;48102;47.526;19.072;2023-02-21T16:21:42;100307.66;;;11.71;89.64
62111;BME280;48102;47.526;19.072;2023-02-21T16:24:45;100311.06;;;11.73;89.55
62111;BME280;48102;47.526;19.072;2023-02-21T16:27:50;100308.50;;;11.71;90.21
62111;BME280;48102;47.526;19.072;2023-02-21T16:30:57;100312.91;;;11.88;89.07
62111;BME280;48102;47.526;19.072;2023-02-21T16:34:00;100311.09;;;11.89;89.12
62111;BME280;48102;47.526;19.072;2023-02-21T16:37:07;100321.06;;;11.99;89.08
62111;BME280;48102;47.526;19.072;2023-02-21T16:40:22;100326.28;;;12.01;88.78
